Time;durP1;ratioP1;P1;durP2;ratioP2;P2;SDS_P1;SDS_P2;PMS_P1;PMS_P2;Temp;Humidity;BMP_temperature;BMP_pressure;BME280_temperature;BME280_humidity;BME280_pressure;Samples;Min_cycle;Max_cycle;Signal;HPM_P1;HPM_P2
2021/03/09 00:01:32;;;;;;;18.23;9.35;;;;;;;-3.63;64.08;96918.49;1788136;80;21095;-79
2021/03/09 00:03:58;;;;;;;16.48;9.45;;;;;;;-3.64;64.08;96920.66;1788098;80;21246;-79
2021/03/09 00:06:24;;;;;;;16.90;9.33;;;;;;;-3.66;64.14;96915.67;1788061;80;21255;-79
2021/03/09 00:08:50;;;;;;;15.00;8.98;;;;;;;-3.66;64.20;96917.39;1788128;80;21112;-79
2021/03/09 00:11:17;;;;;;;15.28;9.95;;;;;;;-3.67;64.31;96921.65;1788077;80;21081;-79
2021/03/09 00:13:43;;;;;;;14.78;10.00;;;;;;;-3.70;64.30;96921.82;1788096;80;21097;-79
2021/03/09 00:16:08;;;;;;;15.45;9.75;;;;;;;-3.71;64.31;96920.63;1788364;80;21109;-79
2021/03/09 00:18:34;;;;;;;19.57;11.00;;;;;;;-3.71;64.42;96924.44;1788126;80;21115;-79
2021/03/09 00:21:00;;;;;;;14.87;9.30;;;;;;;-3.71;64.49;96923.17;1788076;80;21307;-79
2021/03/09 00:23:26;;;;;;;14.00;9.95;;;;;;;-3.72;64.61;96921.09;1788175;80;21111;-79
2021/03/09 00:25:53;;;;;;;16.75;10.53;;;;;;;-3.71;64.58;96922.72;1787771;80;21168;-79
2021/03/09 00:28:23;;;;;;;16.82;9.83;;;;;;;-3.72;64.57;96918.55;1787478;80;21120;-79
2021/03/09 00:30:49;;;;;;;16.35;9.93;;;;;;;-3.74;64.60;96920.80;1786955;80;21156;-79
2021/03/09 00:33:15;;;;;;;18.42;10.53;;;;;;;-3.74;64.63;96921.63;1787421;80;21116;-79
2021/03/09 00:35:41;;;;;;;20.48;11.28;;;;;;;-3.76;64.70;96914.50;1787523;80;21132;-80
2021/03/09 00:38:07;;;;;;;15.95;10.13;;;;;;;-3.76;64.83;96913.69;1787495;80;21113;-79
2021/03/09 00:40:34;;;;;;;18.67;11.50;;;;;;;-3.75;64.79;96917.41;1756616;80;21089;-79
2021/03/09 00:43:00;;;;;;;22.05;11.78;;;;;;;-3.76;64.74;96917.50;1787106;80;21160;-79
2021/03/09 00:45:26;;;;;;;16.17;10.55;;;;;;;-3.80;64.76;96918.11;1787650;80;21270;-79
2021/03/09 00:47:52;;;;;;;18.73;10.28;;;;;;;-3.82;64.79;96916.56;1787383;80;21085;-79
2021/03/09 00:50:18;;;;;;;17.62;10.13;;;;;;;-3.82;64.91;96918.64;1756447;80;21263;-79
2021/03/09 00:52:44;;;;;;;19.10;9.95;;;;;;;-3.83;64.96;96909.84;1787571;80;21137;-79
2021/03/09 00:55:12;;;;;;;15.98;10.63;;;;;;;-3.83;65.07;96915.73;1787553;80;21938;-79
2021/03/09 00:57:38;;;;;;;17.07;10.75;;;;;;;-3.84;65.03;96915.38;1788270;80;21100;-79
2021/03/09 01:00:05;;;;;;;17.20;10.88;;;;;;;-3.88;64.92;96916.44;1788215;80;21097;-79
2021/03/09 01:02:31;;;;;;;16.87;11.40;;;;;;;-3.92;65.12;96911.95;1788116;80;21323;-79
2021/03/09 01:04:57;;;;;;;22.00;10.98;;;;;;;-3.94;65.23;96906.59;1788142;80;21145;-79
2021/03/09 01:07:24;;;;;;;16.48;10.10;;;;;;;-3.96;65.30;96903.31;1788113;80;21447;-79
2021/03/09 01:09:50;;;;;;;17.25;10.85;;;;;;;-4.00;65.31;96899.30;1788105;80;21223;-79
2021/03/09 01:12:16;;;;;;;20.77;12.03;;;;;;;-4.01;65.37;96898.94;1788103;80;21124;-79
2021/03/09 01:14:42;;;;;;;23.25;11.18;;;;;;;-4.04;65.50;96896.11;1788096;80;21120;-79
2021/03/09 01:17:08;;;;;;;18.82;10.60;;;;;;;-4.05;65.65;96893.20;1788129;80;21292;-79
2021/03/09 01:19:34;;;;;;;20.50;11.83;;;;;;;-4.07;65.65;96893.73;1788230;80;21104;-79
2021/03/09 01:22:00;;;;;;;18.45;11.08;;;;;;;-4.06;65.59;96890.75;1788079;80;21101;-79
2021/03/09 01:24:26;;;;;;;16.15;11.12;;;;;;;-4.07;65.74;96894.16;1787732;80;21113;-79
2021/03/09 01:26:52;;;;;;;19.12;10.93;;;;;;;-4.07;65.85;96894.16;1787175;80;21327;-79
2021/03/09 01:29:18;;;;;;;18.40;11.12;;;;;;;-4.08;65.84;96896.33;1788751;80;21112;-79
2021/03/09 01:31:44;;;;;;;14.55;9.48;;;;;;;-4.10;65.71;96897.67;1796129;80;21139;-79
2021/03/09 01:34:10;;;;;;;26.42;12.50;;;;;;;-4.10;65.72;96895.59;1796019;80;21112;-79
2021/03/09 01:36:36;;;;;;;19.23;11.57;;;;;;;-4.09;65.75;96892.15;1796141;80;21307;-79
2021/03/09 01:39:03;;;;;;;16.00;11.10;;;;;;;-4.11;65.67;96886.34;1795999;80;21093;-79
2021/03/09 01:41:29;;;;;;;24.02;13.25;;;;;;;-4.14;65.70;96888.59;1769123;80;21139;-79
2021/03/09 01:43:55;;;;;;;22.98;12.50;;;;;;;-4.14;65.71;96885.23;1795995;79;21123;-79
2021/03/09 01:46:21;;;;;;;20.37;13.08;;;;;;;-4.16;65.71;96884.50;1795977;79;21274;-79
2021/03/09 01:48:47;;;;;;;22.27;13.43;;;;;;;-4.16;65.83;96883.23;1796042;80;21250;-79
2021/03/09 01:51:17;;;;;;;21.05;13.25;;;;;;;-4.17;65.95;96881.59;1796003;79;21449;-79
2021/03/09 01:53:44;;;;;;;26.60;13.88;;;;;;;-4.19;65.91;96879.14;1758841;81;21140;-80
2021/03/09 01:56:10;;;;;;;22.87;12.55;;;;;;;-4.20;65.90;96874.96;1758733;81;21258;-80
2021/03/09 01:58:39;;;;;;;27.52;14.05;;;;;;;-4.21;65.88;96875.86;1758167;81;21430;-80
2021/03/09 02:01:05;;;;;;;26.10;15.05;;;;;;;-4.24;65.89;96873.01;1758652;81;21183;-80
2021/03/09 02:03:31;;;;;;;24.85;13.83;;;;;;;-4.26;65.91;96869.73;1758423;81;21523;-80
2021/03/09 02:05:57;;;;;;;19.98;13.93;;;;;;;-4.27;65.96;96870.63;1732540;81;21131;-80
2021/03/09 02:08:23;;;;;;;22.82;13.62;;;;;;;-4.27;66.04;96866.01;1758554;81;21425;-80
2021/03/09 02:10:49;;;;;;;21.90;12.47;;;;;;;-4.28;66.04;96866.46;1758892;81;21171;-80
2021/03/09 02:13:36;;;;;;;16.57;10.28;;;;;;;-4.28;66.08;96864.38;1758816;81;21119;-80
2021/03/09 02:16:16;;;;;;;14.68;9.23;;;;;;;-4.30;66.21;96864.91;1758288;81;21385;-80
2021/03/09 02:19:07;;;;;;;14.03;8.85;;;;;;;-4.31;66.16;96865.36;1758781;81;21274;-80
2021/03/09 02:21:51;;;;;;;11.97;9.23;;;;;;;-4.33;66.14;96866.34;1759107;81;21143;-80
2021/03/09 02:24:39;;;;;;;15.23;9.93;;;;;;;-4.35;66.15;96860.08;1758708;81;21238;-80
2021/03/09 02:27:48;;;;;;;15.15;9.78;;;;;;;-4.33;66.10;96862.53;1759022;81;21036;-80
2021/03/09 02:30:21;;;;;;;18.98;9.48;;;;;;;-4.32;66.08;96867.97;1757856;81;21482;-80
2021/03/09 02:33:17;;;;;;;14.28;9.80;;;;;;;-4.33;66.06;96862.08;1754486;82;21159;-80
2021/03/09 02:35:57;;;;;;;11.45;8.58;;;;;;;-4.34;66.10;96867.23;1756163;82;21140;-80
2021/03/09 02:38:23;;;;;;;12.10;9.18;;;;;;;-4.33;66.12;96863.80;1754302;82;21179;-80
2021/03/09 02:40:54;;;;;;;17.45;9.10;;;;;;;-4.34;66.10;96862.98;1756334;82;21124;-80
2021/03/09 02:43:20;;;;;;;15.30;10.53;;;;;;;-4.32;66.16;96867.97;1728068;82;21149;-80
2021/03/09 02:45:48;;;;;;;11.73;9.48;;;;;;;-4.29;66.12;96860.20;1756120;82;21159;-80
2021/03/09 02:48:14;;;;;;;13.38;8.55;;;;;;;-4.28;66.07;96864.38;1756238;82;21241;-80
2021/03/09 02:50:40;;;;;;;15.18;9.50;;;;;;;-4.29;66.06;96862.28;1756242;82;21350;-80
2021/03/09 02:53:12;;;;;;;8.85;7.53;;;;;;;-4.30;66.09;96865.72;1756153;82;21139;-80
2021/03/09 02:55:38;;;;;;;9.43;6.78;;;;;;;-4.33;66.02;96867.16;1728934;82;21274;-80
2021/03/09 02:58:10;;;;;;;9.03;7.22;;;;;;;-4.34;66.04;96864.25;1756259;82;21127;-80
2021/03/09 03:00:37;;;;;;;10.28;7.15;;;;;;;-4.35;66.02;96863.06;1728866;82;21293;-80
2021/03/09 03:03:06;;;;;;;8.08;6.33;;;;;;;-4.36;66.03;96867.32;1756138;82;21123;-80
2021/03/09 03:05:33;;;;;;;9.55;6.35;;;;;;;-4.37;66.07;96868.67;1756447;82;21180;-80
2021/03/09 03:07:59;;;;;;;8.48;6.12;;;;;;;-4.37;66.03;96873.29;1756131;82;21119;-80
2021/03/09 03:10:25;;;;;;;8.90;6.40;;;;;;;-4.36;66.04;96867.77;1756353;82;21139;-80
2021/03/09 03:12:51;;;;;;;8.25;6.45;;;;;;;-4.34;66.07;96875.66;1756164;82;21241;-80
2021/03/09 03:15:18;;;;;;;7.25;6.55;;;;;;;-4.32;66.10;96870.06;1756206;82;21261;-80
2021/03/09 03:17:44;;;;;;;8.08;6.55;;;;;;;-4.29;66.06;96869.08;1756212;82;21160;-80
2021/03/09 03:20:16;;;;;;;9.23;6.70;;;;;;;-4.32;66.00;96864.98;1756262;82;21343;-81
2021/03/09 03:22:43;;;;;;;9.63;6.67;;;;;;;-4.33;65.98;96868.87;1756407;82;21132;-80
2021/03/09 03:25:11;;;;;;;12.25;7.17;;;;;;;-4.33;65.90;96878.57;1755667;82;21175;-80
2021/03/09 03:27:38;;;;;;;10.95;7.28;;;;;;;-4.33;65.87;96867.16;1729022;82;21307;-80
2021/03/09 03:30:08;;;;;;;15.75;7.78;;;;;;;-4.34;65.80;96870.59;1722377;82;21148;-80
2021/03/09 03:32:35;;;;;;;12.63;8.38;;;;;;;-4.35;65.87;96874.03;1728835;82;21277;-80
2021/03/09 03:35:01;;;;;;;10.15;7.30;;;;;;;-4.36;65.85;96867.32;1729011;82;21128;-80
2021/03/09 03:37:27;;;;;;;13.15;9.25;;;;;;;-4.37;65.89;96868.67;1728993;82;21363;-80
2021/03/09 03:39:53;;;;;;;12.75;9.55;;;;;;;-4.40;66.03;96866.27;1728935;82;21140;-80
2021/03/09 03:42:19;;;;;;;17.85;10.68;;;;;;;-4.39;66.02;96866.66;1728991;82;21326;-80
2021/03/09 03:44:45;;;;;;;19.25;11.40;;;;;;;-4.44;65.95;96865.61;1728951;82;21148;-80
2021/03/09 03:47:11;;;;;;;19.45;10.75;;;;;;;-4.47;66.00;96869.57;1728911;83;21335;-80
2021/03/09 03:49:38;;;;;;;20.00;10.98;;;;;;;-4.47;66.04;96870.02;1728969;83;21109;-80
2021/03/09 03:52:21;;;;;;;16.20;9.65;;;;;;;-4.48;66.17;96865.40;1729082;82;21139;-80
2021/03/09 03:55:13;;;;;;;13.00;9.50;;;;;;;-4.49;66.16;96870.10;1728937;83;21116;-80
2021/03/09 03:57:46;;;;;;;11.35;8.78;;;;;;;-4.51;66.28;96870.63;1713325;83;21518;-80
2021/03/09 04:00:16;;;;;;;13.58;8.05;;;;;;;-4.52;66.32;96871.98;1728198;82;21382;-80
2021/03/09 04:02:46;;;;;;;10.05;8.50;;;;;;;-4.49;66.48;96863.76;1728314;82;21119;-80
2021/03/09 04:05:13;;;;;;;10.55;8.35;;;;;;;-4.40;66.38;96863.27;1728839;83;21108;-81
2021/03/09 04:07:39;;;;;;;10.20;6.92;;;;;;;-4.33;66.41;96861.27;1729005;82;21092;-81
2021/03/09 04:10:06;;;;;;;14.43;8.50;;;;;;;-4.25;66.36;96865.03;1728977;83;21379;-80
2021/03/09 04:12:32;;;;;;;13.75;8.78;;;;;;;-4.20;66.28;96871.16;1728914;83;21112;-80
2021/03/09 04:14:59;;;;;;;10.82;7.22;;;;;;;-4.20;66.14;96870.34;1728893;83;21128;-80
2021/03/09 04:17:28;;;;;;;9.58;6.67;;;;;;;-4.20;66.04;96874.14;1728831;83;21131;-80
2021/03/09 04:19:55;;;;;;;8.45;7.08;;;;;;;-4.24;66.04;96869.20;1728887;83;21636;-80
2021/03/09 04:22:22;;;;;;;8.85;6.03;;;;;;;-4.24;66.02;96865.84;1728530;83;21132;-80
2021/03/09 04:24:48;;;;;;;14.98;8.30;;;;;;;-4.28;65.98;96869.45;1728288;82;21179;-80
2021/03/09 04:27:21;;;;;;;14.07;8.13;;;;;;;-4.28;66.02;96864.38;1728411;83;21471;-80
2021/03/09 04:29:52;;;;;;;9.40;7.25;;;;;;;-4.28;66.12;96866.91;1729741;80;21104;-80
2021/03/09 04:32:19;;;;;;;9.08;7.40;;;;;;;-4.27;66.30;96868.55;1750887;82;21299;-80
2021/03/09 04:34:46;;;;;;;13.03;8.78;;;;;;;-4.27;66.55;96869.81;1750933;82;21124;-80
2021/03/09 04:37:12;;;;;;;10.60;7.92;;;;;;;-4.28;66.83;96866.46;1721420;82;21238;-80
2021/03/09 04:39:38;;;;;;;9.98;7.22;;;;;;;-4.18;67.00;96874.43;1750679;82;21347;-80
2021/03/09 04:42:04;;;;;;;13.58;7.12;;;;;;;-4.11;66.96;96874.92;1750769;82;21111;-80
2021/03/09 04:44:30;;;;;;;8.65;6.92;;;;;;;-4.07;67.07;96878.92;1745839;82;21116;-80
2021/03/09 04:46:56;;;;;;;11.57;7.60;;;;;;;-4.06;67.23;96871.27;1750865;82;21088;-80
2021/03/09 04:49:22;;;;;;;17.87;11.08;;;;;;;-4.06;67.54;96868.72;1788064;80;21139;-80
2021/03/09 04:51:48;;;;;;;19.42;11.38;;;;;;;-4.03;67.60;96871.09;1757413;80;21223;-80
2021/03/09 04:54:17;;;;;;;18.00;10.88;;;;;;;-3.96;67.51;96872.85;1788237;80;21304;-80
2021/03/09 04:56:43;;;;;;;17.48;12.23;;;;;;;-3.85;67.43;96866.77;1788038;80;21092;-80
2021/03/09 04:59:09;;;;;;;20.70;12.28;;;;;;;-3.77;67.43;96864.62;1788017;80;21128;-80
2021/03/09 05:01:35;;;;;;;17.07;11.00;;;;;;;-3.76;67.49;96863.72;1788093;80;21151;-80
2021/03/09 05:04:01;;;;;;;18.70;10.80;;;;;;;-3.76;67.70;96863.72;1788123;80;21113;-80
2021/03/09 05:06:27;;;;;;;11.28;8.60;;;;;;;-3.71;67.68;96865.58;1788006;80;21235;-80
2021/03/09 05:08:53;;;;;;;12.18;7.90;;;;;;;-3.57;67.60;96874.19;1788156;80;21073;-80
2021/03/09 05:11:19;;;;;;;10.85;8.20;;;;;;;-3.47;67.73;96868.95;1787998;80;21104;-80
2021/03/09 05:13:44;;;;;;;12.35;8.18;;;;;;;-3.43;67.46;96869.14;1788096;80;21320;-80
2021/03/09 05:16:10;;;;;;;11.00;7.53;;;;;;;-3.37;67.45;96868.37;1788227;80;21117;-80
2021/03/09 05:18:36;;;;;;;11.70;8.80;;;;;;;-3.33;67.25;96874.92;1788237;80;21101;-80
2021/03/09 05:21:03;;;;;;;11.20;8.95;;;;;;;-3.23;67.13;96876.97;1788118;80;21316;-81
2021/03/09 05:23:29;;;;;;;16.73;10.03;;;;;;;-3.20;67.08;96881.42;1788038;80;21100;-81
2021/03/09 05:25:56;;;;;;;10.68;8.33;;;;;;;-3.20;66.90;96878.88;1788020;80;21275;-81
2021/03/09 05:28:22;;;;;;;15.40;8.70;;;;;;;-3.18;66.85;96879.61;1788028;80;21101;-81
2021/03/09 05:30:48;;;;;;;15.75;9.83;;;;;;;-3.09;67.08;96874.48;1791526;80;21431;-81
2021/03/09 05:33:14;;;;;;;13.88;9.50;;;;;;;-2.97;66.98;96875.49;1796756;80;21105;-81
2021/03/09 05:35:40;;;;;;;16.10;10.28;;;;;;;-2.89;66.81;96879.25;1796278;79;21254;-80
2021/03/09 05:38:06;;;;;;;17.95;12.93;;;;;;;-2.83;66.95;96878.08;1795950;80;21453;-81
2021/03/09 05:40:32;;;;;;;17.95;11.38;;;;;;;-2.80;66.97;96877.89;1796066;80;21157;-80
2021/03/09 05:42:58;;;;;;;22.22;12.68;;;;;;;-2.78;66.85;96879.44;1796119;79;21123;-80
2021/03/09 05:45:24;;;;;;;21.57;12.50;;;;;;;-2.71;66.92;96881.20;1795890;80;21484;-80
2021/03/09 05:47:51;;;;;;;18.73;12.80;;;;;;;-2.63;66.93;96882.83;1795608;80;21140;-80
2021/03/09 05:50:17;;;;;;;18.40;12.75;;;;;;;-2.57;66.66;96882.95;1795920;80;21136;-80
2021/03/09 05:52:43;;;;;;;22.65;12.95;;;;;;;-2.49;67.22;96882.04;1796145;80;21263;-80
2021/03/09 05:55:11;;;;;;;18.12;12.10;;;;;;;-2.46;66.75;96881.85;1795991;80;21278;-80
2021/03/09 05:57:38;;;;;;;24.82;13.58;;;;;;;-2.45;66.48;96886.03;1796731;80;21108;-80
2021/03/09 06:00:06;;;;;;;25.25;14.28;;;;;;;-2.37;66.59;96885.60;1796582;80;21120;-81
2021/03/09 06:02:33;;;;;;;18.27;12.25;;;;;;;-2.31;66.59;96884.77;1796729;80;21247;-81
2021/03/09 06:05:00;;;;;;;14.23;10.20;;;;;;;-2.27;66.94;96889.25;1796859;80;21290;-80
2021/03/09 06:07:25;;;;;;;20.17;15.48;;;;;;;-2.30;66.91;96897.05;1796632;79;21219;-81
2021/03/09 06:09:51;;;;;;;23.20;18.23;;;;;;;-2.29;66.94;96897.41;1796701;79;21398;-81
2021/03/09 06:12:24;;;;;;;26.97;20.72;;;;;;;-2.26;67.06;96899.80;1796622;79;21211;-81
2021/03/09 06:15:03;;;;;;;27.05;20.02;;;;;;;-2.26;67.01;96901.89;1796394;80;21139;-81
2021/03/09 06:17:38;;;;;;;28.77;20.97;;;;;;;-2.20;67.04;96901.97;1796763;79;21320;-81
2021/03/09 06:20:18;;;;;;;34.25;24.80;;;;;;;-2.08;67.12;96904.25;1796615;79;21109;-81
2021/03/09 06:22:52;;;;;;;32.08;19.87;;;;;;;-2.02;67.04;96905.97;1704932;83;21159;-81
2021/03/09 06:25:22;;;;;;;33.40;19.57;;;;;;;-1.94;67.07;96902.98;1727756;83;21151;-81
2021/03/09 06:27:49;;;;;;;31.68;19.55;;;;;;;-1.86;67.08;96896.50;1740562;82;21109;-81
2021/03/09 06:30:38;;;;;;;29.55;20.15;;;;;;;-1.74;67.07;96897.49;1739725;82;21142;-81
2021/03/09 06:33:05;;;;;;;26.70;17.57;;;;;;;-1.60;66.96;96904.30;1730308;83;21150;-81
2021/03/09 06:35:39;;;;;;;28.47;19.05;;;;;;;-1.52;66.84;96904.63;1703808;83;21118;-81
2021/03/09 06:38:28;;;;;;;23.50;17.85;;;;;;;-1.51;66.78;96908.81;1730647;83;21105;-81
2021/03/09 06:41:14;;;;;;;42.20;26.57;;;;;;;-1.42;66.87;96906.16;1730676;83;21133;-81
2021/03/09 06:43:46;;;;;;;38.98;26.70;;;;;;;-1.34;66.87;96914.14;1730668;83;21114;-81
2021/03/09 06:46:20;;;;;;;44.48;28.10;;;;;;;-1.26;66.64;96910.21;1730703;83;21154;-81
2021/03/09 06:48:52;;;;;;;43.85;27.80;;;;;;;-1.16;66.56;96914.26;1703447;83;21146;-81
2021/03/09 06:51:30;;;;;;;49.08;29.95;;;;;;;-1.08;66.36;96920.17;1730781;83;21122;-81
2021/03/09 06:54:10;;;;;;;50.17;30.90;;;;;;;-1.05;66.33;96916.14;1730822;83;21114;-81
2021/03/09 06:56:39;;;;;;;65.70;39.65;;;;;;;-1.03;66.02;96921.97;1730578;83;21082;-81
2021/03/09 06:59:22;;;;;;;62.33;35.52;;;;;;;-1.05;65.62;96932.72;1730133;83;21125;-81
2021/03/09 07:02:19;;;;;;;76.53;40.88;;;;;;;-1.20;65.25;96933.22;1730766;83;21358;-81
2021/03/09 07:04:49;;;;;;;77.27;42.13;;;;;;;-1.18;65.65;96934.41;1730702;83;21381;-81
2021/03/09 07:07:31;;;;;;;85.92;49.85;;;;;;;-1.08;65.66;96936.75;1730197;81;21121;-81
2021/03/09 07:10:12;;;;;;;85.77;45.33;;;;;;;-0.98;65.60;96934.81;1726285;83;21137;-81
2021/03/09 07:12:40;;;;;;;82.17;44.25;;;;;;;-0.89;65.45;96937.22;1724785;83;21309;-82
2021/03/09 07:15:10;;;;;;;95.10;53.45;;;;;;;-0.68;65.10;96935.83;1730695;83;21115;-81
2021/03/09 07:17:37;;;;;;;216.08;122.30;;;;;;;-0.44;65.11;96933.90;1727863;83;21090;-81
2021/03/09 07:20:11;;;;;;;262.85;135.93;;;;;;;-0.21;63.78;96934.92;1725910;83;21225;-81
2021/03/09 07:22:37;;;;;;;188.32;101.45;;;;;;;-0.08;63.14;96928.09;1724992;83;21219;-81
2021/03/09 07:25:11;;;;;;;153.53;83.03;;;;;;;0.05;62.66;96920.42;1730637;83;21154;-81
2021/03/09 07:27:51;;;;;;;91.87;52.08;;;;;;;0.13;61.96;96927.91;1730527;83;21070;-81
2021/03/09 07:30:19;;;;;;;74.70;41.95;;;;;;;0.14;61.35;96932.09;1726150;83;21102;-81
2021/03/09 07:32:50;;;;;;;72.60;41.42;;;;;;;0.11;61.79;96935.33;1730438;83;21101;-81
2021/03/09 07:35:16;;;;;;;75.62;41.37;;;;;;;-0.07;61.51;96934.83;1728044;83;21102;-81
2021/03/09 07:37:42;;;;;;;90.50;47.83;;;;;;;-0.17;61.67;96936.34;1725749;83;21427;-80
2021/03/09 07:40:16;;;;;;;87.37;48.05;;;;;;;-0.29;61.50;96926.97;1729896;83;21146;-81
2021/03/09 07:42:53;;;;;;;89.80;47.27;;;;;;;-0.43;61.01;96927.88;1746856;79;23417;-79
2021/03/09 07:45:22;;;;;;;84.47;47.05;;;;;;;-0.44;61.66;96933.90;1706747;82;21156;-79
2021/03/09 07:47:58;;;;;;;91.70;50.28;;;;;;;-0.34;61.73;96929.34;1706556;83;21102;-80
2021/03/09 07:50:27;;;;;;;95.35;52.55;;;;;;;-0.22;62.18;96929.46;1714106;83;21138;-80
2021/03/09 07:52:59;;;;;;;86.85;49.42;;;;;;;-0.22;62.02;96927.73;1713174;83;21171;-79
2021/03/09 07:55:37;;;;;;;85.47;47.83;;;;;;;-0.15;61.83;96924.32;1815087;79;22841;-80
2021/03/09 07:58:23;;;;;;;100.33;50.52;;;;;;;-0.29;61.92;96924.41;1794895;80;21296;-80
2021/03/09 08:01:04;;;;;;;92.82;48.25;;;;;;;-0.31;62.08;96924.06;1785786;80;21110;-80
2021/03/09 08:03:37;;;;;;;83.70;48.38;;;;;;;-0.21;62.29;96920.88;1778780;80;21050;-80
2021/03/09 08:06:14;;;;;;;72.50;41.95;;;;;;;-0.12;62.23;96918.54;1788279;80;21371;-80
2021/03/09 08:08:55;;;;;;;62.85;39.13;;;;;;;-0.09;61.61;96921.34;1794389;80;21097;-80
2021/03/09 08:11:26;;;;;;;56.50;34.53;;;;;;;0.07;61.34;96916.02;1788703;80;21110;-80
2021/03/09 08:14:10;;;;;;;49.90;28.55;;;;;;;0.11;60.74;96918.72;1793110;80;21102;-80
2021/03/09 08:16:41;;;;;;;48.50;30.10;;;;;;;0.11;59.62;96915.70;1792283;80;21085;-80
2021/03/09 08:19:31;;;;;;;58.70;36.05;;;;;;;0.19;59.45;96917.75;1720815;82;21236;-80
2021/03/09 08:22:01;;;;;;;58.90;34.92;;;;;;;0.34;60.00;96918.45;1750763;81;21094;-80
2021/03/09 08:24:47;;;;;;;55.43;32.78;;;;;;;0.44;59.64;96922.80;1748275;81;21135;-80
2021/03/09 08:27:33;;;;;;;55.25;31.45;;;;;;;0.50;58.91;96922.39;1730137;81;21119;-80
2021/03/09 08:30:27;;;;;;;60.58;34.38;;;;;;;0.65;58.71;96920.52;1746954;81;21109;-81
2021/03/09 08:33:14;;;;;;;57.50;34.60;;;;;;;0.84;58.69;96918.29;1740380;81;21118;-81
2021/03/09 08:35:40;;;;;;;56.95;35.28;;;;;;;0.94;58.07;96913.32;1711495;83;21123;-81
2021/03/09 08:38:15;;;;;;;57.20;31.75;;;;;;;0.93;57.39;96918.09;1742966;81;21094;-81
2021/03/09 08:41:02;;;;;;;50.52;30.57;;;;;;;0.90;58.09;96922.14;1754966;81;21110;-81
2021/03/09 08:43:43;;;;;;;49.05;29.60;;;;;;;0.86;58.24;96919.00;1739484;81;21333;-81
2021/03/09 08:46:09;;;;;;;49.53;28.20;;;;;;;0.82;57.89;96916.77;1747777;81;21305;-81
2021/03/09 08:48:48;;;;;;;48.42;28.45;;;;;;;0.67;57.18;96921.69;1752323;81;21176;-81
2021/03/09 08:51:41;;;;;;;51.18;30.57;;;;;;;0.54;57.25;96918.70;1754422;81;21268;-81
2021/03/09 08:54:25;;;;;;;49.15;28.80;;;;;;;0.51;58.57;96917.63;1742348;81;21348;-81
2021/03/09 08:56:52;;;;;;;45.08;27.30;;;;;;;0.58;58.56;96919.29;1777153;80;21297;-81
2021/03/09 08:59:23;;;;;;;50.17;29.30;;;;;;;0.63;58.25;96912.56;1780833;80;21325;-81
2021/03/09 09:01:50;;;;;;;45.70;27.35;;;;;;;0.69;58.10;96909.59;1789651;80;21086;-81
2021/03/09 09:04:16;;;;;;;45.17;26.80;;;;;;;0.75;58.23;96907.88;1755390;80;21426;-81
2021/03/09 09:06:45;;;;;;;46.85;28.32;;;;;;;0.83;57.79;96906.89;1784892;80;21079;-81
2021/03/09 09:09:11;;;;;;;46.18;27.15;;;;;;;0.74;57.58;96903.22;1782421;80;21515;-81
2021/03/09 09:11:37;;;;;;;43.98;27.90;;;;;;;0.70;57.11;96912.05;1789771;80;21117;-81
2021/03/09 09:14:17;;;;;;;45.00;29.02;;;;;;;0.66;56.90;96905.98;1788547;80;21429;-81
2021/03/09 09:16:44;;;;;;;50.43;29.50;;;;;;;0.74;56.94;96901.13;1782280;80;21054;-81
2021/03/09 09:19:10;;;;;;;43.85;27.37;;;;;;;0.89;57.27;96900.05;1754445;80;21200;-81
2021/03/09 09:21:45;;;;;;;38.88;24.55;;;;;;;1.06;57.30;96898.84;1787752;80;21220;-81
2021/03/09 09:24:21;;;;;;;40.35;22.95;;;;;;;1.24;56.35;96897.97;1781946;80;21177;-81
2021/03/09 09:26:59;;;;;;;40.23;24.63;;;;;;;1.39;55.25;96889.99;1784463;80;21103;-81
2021/03/09 09:29:26;;;;;;;32.10;18.67;;;;;;;1.65;56.01;96887.27;1785456;80;21111;-81
2021/03/09 09:31:58;;;;;;;29.92;20.60;;;;;;;1.86;53.61;96881.80;1781360;80;21230;-81
2021/03/09 09:34:34;;;;;;;36.75;24.00;;;;;;;2.08;53.74;96889.48;1788037;80;21989;-81
2021/03/09 09:37:13;;;;;;;30.80;21.57;;;;;;;2.26;54.36;96885.98;1786501;80;21129;-81
2021/03/09 09:39:39;;;;;;;33.58;21.05;;;;;;;2.30;52.56;96889.15;1788410;80;21157;-81
2021/03/09 09:42:16;;;;;;;32.78;19.98;;;;;;;2.29;53.52;96887.05;1786562;80;21145;-81
2021/03/09 09:44:42;;;;;;;24.15;15.75;;;;;;;2.30;51.71;96887.87;1783241;80;21289;-81
2021/03/09 09:47:09;;;;;;;25.48;16.27;;;;;;;2.26;51.12;96883.88;1783192;80;21117;-81
2021/03/09 09:49:37;;;;;;;29.80;19.17;;;;;;;2.29;50.91;96882.39;1778126;80;21116;-81
2021/03/09 09:52:12;;;;;;;27.32;16.87;;;;;;;2.30;51.70;96879.70;1789567;80;21077;-81
2021/03/09 09:54:38;;;;;;;23.40;15.50;;;;;;;2.41;51.69;96875.02;1784846;80;21352;-80
2021/03/09 09:57:11;;;;;;;23.70;15.20;;;;;;;2.46;51.40;96888.78;1777711;80;21091;-80
2021/03/09 09:59:37;;;;;;;26.48;16.32;;;;;;;2.48;50.78;96885.16;1779845;80;21085;-82
2021/03/09 10:02:17;;;;;;;23.85;14.65;;;;;;;2.46;50.18;96882.38;1776970;80;21237;-80
2021/03/09 10:04:43;;;;;;;22.62;13.28;;;;;;;2.27;48.69;96882.95;1782628;80;21519;-81
2021/03/09 10:07:16;;;;;;;25.45;17.17;;;;;;;2.09;47.73;96883.89;1779633;80;21293;-81
2021/03/09 10:10:07;;;;;;;23.67;16.30;;;;;;;1.85;48.42;96878.08;1712555;82;21097;-81
2021/03/09 10:12:34;;;;;;;21.15;15.00;;;;;;;1.91;49.28;96878.89;1751925;81;21111;-79
2021/03/09 10:15:01;;;;;;;26.73;16.95;;;;;;;2.12;49.68;96873.44;1780000;81;21138;-79
2021/03/09 10:17:26;;;;;;;28.80;17.00;;;;;;;2.15;48.66;96877.04;1780161;81;21106;-81
2021/03/09 10:19:54;;;;;;;23.18;15.28;;;;;;;2.14;49.08;96877.16;1758216;81;21138;-79
2021/03/09 10:22:23;;;;;;;25.02;16.75;;;;;;;2.14;48.37;96865.62;1780379;81;21106;-80
2021/03/09 10:24:49;;;;;;;23.77;18.02;;;;;;;2.13;48.96;96867.38;1780189;81;21249;-80
2021/03/09 10:27:24;;;;;;;24.23;16.35;;;;;;;2.22;49.13;96859.42;1780390;81;21126;-82
2021/03/09 10:29:56;;;;;;;27.20;16.37;;;;;;;2.26;49.19;96858.24;1758458;81;21126;-83
2021/03/09 10:32:22;;;;;;;28.25;18.98;;;;;;;2.37;49.86;96855.20;1757747;81;21150;-82
2021/03/09 10:34:51;;;;;;;33.25;20.30;;;;;;;2.54;49.78;96857.73;1779776;81;21130;-83
2021/03/09 10:37:20;;;;;;;28.35;19.10;;;;;;;2.64;49.00;96853.99;1779165;80;21276;-83
2021/03/09 10:39:59;;;;;;;22.58;15.28;;;;;;;2.68;48.51;96852.80;1768143;80;21264;-83
2021/03/09 10:42:32;;;;;;;15.08;10.63;;;;;;;2.79;46.98;96841.70;1780139;81;21071;-83
2021/03/09 10:45:20;;;;;;;14.20;10.48;;;;;;;2.61;46.22;96846.08;1780347;81;21110;-83
2021/03/09 10:47:50;;;;;;;15.23;10.78;;;;;;;2.53;46.07;96848.88;1780389;81;21301;-83
2021/03/09 10:50:17;;;;;;;16.82;13.13;;;;;;;2.65;47.66;96847.92;1780235;81;21257;-83
2021/03/09 10:52:43;;;;;;;16.55;11.80;;;;;;;2.74;47.00;96839.95;1780160;81;21353;-83
2021/03/09 10:55:10;;;;;;;15.05;10.72;;;;;;;2.89;47.46;96833.59;1784441;80;21122;-83
2021/03/09 10:57:36;;;;;;;16.62;11.60;;;;;;;2.87;45.93;96840.14;1788569;80;21289;-83
2021/03/09 11:00:06;;;;;;;11.08;6.80;;;;;;;2.74;47.43;96838.66;1788482;80;21126;-83
2021/03/09 11:02:32;;;;;;;11.20;8.33;;;;;;;2.61;46.50;96838.84;1786942;80;21137;-83
2021/03/09 11:04:58;;;;;;;14.38;9.63;;;;;;;2.42;43.47;96831.75;1757784;80;21079;-83
2021/03/09 11:07:24;;;;;;;13.18;9.50;;;;;;;2.21;46.10;96830.41;1788434;80;21258;-83
2021/03/09 11:09:50;;;;;;;15.70;10.05;;;;;;;2.08;45.21;96829.25;1788515;80;21117;-83
2021/03/09 11:12:16;;;;;;;10.63;8.50;;;;;;;2.10;46.13;96820.16;1788320;80;21245;-83
2021/03/09 11:14:43;;;;;;;19.50;10.95;;;;;;;2.12;46.36;96816.22;1783516;80;21162;-83
2021/03/09 11:17:09;;;;;;;16.15;10.43;;;;;;;2.25;47.28;96822.81;1788621;80;21110;-83
2021/03/09 11:19:35;;;;;;;22.70;14.70;;;;;;;2.25;46.26;96816.41;1788623;80;21125;-83
2021/03/09 11:22:01;;;;;;;23.42;14.53;;;;;;;2.17;47.93;96817.48;1788463;80;21274;-83
2021/03/09 11:24:27;;;;;;;22.25;14.33;;;;;;;2.04;47.26;96816.33;1788549;80;21126;-83
2021/03/09 11:26:59;;;;;;;23.83;15.20;;;;;;;1.98;47.66;96808.31;1788531;80;21125;-83
2021/03/09 11:29:21;;;;;;;17.82;12.33;;;;;;;2.00;48.78;96811.56;1787606;80;21122;-83
2021/03/09 11:31:47;;;;;;;17.98;11.60;;;;;;;1.97;48.42;96811.81;1788567;80;21396;-83
2021/03/09 11:34:13;;;;;;;16.32;11.43;;;;;;;2.07;46.61;96815.27;1788572;80;21337;-83
2021/03/09 11:36:39;;;;;;;16.93;12.73;;;;;;;2.10;46.89;96809.91;1788649;80;21130;-83